Sapulpa, Oklahoma
Current Conditions -  °F | °C
As of 11:53 PM on Wednesday 28 Jan 2015 (Local Time) from KRVS Reporting Station
Clear Clear  
Wind Chill: 52°   Ceiling: Unl
Heat Index: 52°   Visibility: 10mi
Dew Point: 41°   Wind: 0mph
Humidity: 66%   Direction: NA
Pressure: 29.96"   Gusts: NA
Location:  36°N, 96.11°W
Report Text: KRVS 290553Z 00000KT 10SM CLR 11/05 A2996 RMK AO2 SLP152 T01110050 10228 20111 402610022 51014
Loading
Personal Weather Stations






























Interactive Weather Map New forecast layout! Learn more

10-Day Weather Forecast

Advertisements
Track Severe Weather on mobile